sensor_id;sensor_type;location;lat;lon;timestamp;P1;durP1;ratioP1;P2;durP2;ratioP2
40453;SDS011;26160;51.858;4.398;2022-09-27T00:01:45;6.57;;;1.30;;
40453;SDS011;26160;51.858;4.398;2022-09-27T00:04:11;3.40;;;0.80;;
40453;SDS011;26160;51.858;4.398;2022-09-27T00:06:37;10.17;;;1.20;;
40453;SDS011;26160;51.858;4.398;2022-09-27T00:09:04;5.93;;;0.97;;
40453;SDS011;26160;51.858;4.398;2022-09-27T00:11:36;11.13;;;1.37;;
40453;SDS011;26160;51.858;4.398;2022-09-27T00:14:04;7.87;;;0.90;;
40453;SDS011;26160;51.858;4.398;2022-09-27T00:16:32;5.53;;;1.20;;
40453;SDS011;26160;51.858;4.398;2022-09-27T00:19:01;7.87;;;1.27;;
40453;SDS011;26160;51.858;4.398;2022-09-27T00:21:38;6.33;;;1.30;;
40453;SDS011;26160;51.858;4.398;2022-09-27T00:24:05;9.10;;;1.10;;
40453;SDS011;26160;51.858;4.398;2022-09-27T00:26:31;13.17;;;1.50;;
40453;SDS011;26160;51.858;4.398;2022-09-27T00:28:57;4.13;;;0.83;;
40453;SDS011;26160;51.858;4.398;2022-09-27T00:31:25;6.57;;;1.10;;
40453;SDS011;26160;51.858;4.398;2022-09-27T00:33:54;11.17;;;1.63;;
40453;SDS011;26160;51.858;4.398;2022-09-27T00:36:21;13.90;;;1.90;;
40453;SDS011;26160;51.858;4.398;2022-09-27T00:38:48;7.43;;;1.00;;
40453;SDS011;26160;51.858;4.398;2022-09-27T00:41:16;8.47;;;1.30;;
40453;SDS011;26160;51.858;4.398;2022-09-27T00:43:46;13.80;;;2.37;;
40453;SDS011;26160;51.858;4.398;2022-09-27T00:46:13;9.80;;;1.60;;
40453;SDS011;26160;51.858;4.398;2022-09-27T00:48:43;13.07;;;1.57;;
40453;SDS011;26160;51.858;4.398;2022-09-27T00:51:10;10.90;;;1.17;;
40453;SDS011;26160;51.858;4.398;2022-09-27T00:53:44;8.57;;;1.37;;
40453;SDS011;26160;51.858;4.398;2022-09-27T00:56:19;13.10;;;2.10;;
40453;SDS011;26160;51.858;4.398;2022-09-27T00:58:50;9.13;;;2.80;;
40453;SDS011;26160;51.858;4.398;2022-09-27T01:03:54;11.13;;;1.87;;
40453;SDS011;26160;51.858;4.398;2022-09-27T01:06:24;14.57;;;1.77;;
40453;SDS011;26160;51.858;4.398;2022-09-27T01:08:50;15.20;;;1.87;;
40453;SDS011;26160;51.858;4.398;2022-09-27T01:16:46;11.43;;;2.17;;
40453;SDS011;26160;51.858;4.398;2022-09-27T01:43:12;8.70;;;1.20;;
40453;SDS011;26160;51.858;4.398;2022-09-27T01:46:30;7.93;;;1.20;;
40453;SDS011;26160;51.858;4.398;2022-09-27T01:48:43;10.40;;;1.00;;
40453;SDS011;26160;51.858;4.398;2022-09-27T01:51:19;6.20;;;1.63;;
40453;SDS011;26160;51.858;4.398;2022-09-27T01:53:50;6.03;;;0.93;;
40453;SDS011;26160;51.858;4.398;2022-09-27T01:56:20;6.13;;;1.10;;
40453;SDS011;26160;51.858;4.398;2022-09-27T01:59:11;8.40;;;0.97;;
40453;SDS011;26160;51.858;4.398;2022-09-27T02:01:41;7.23;;;1.03;;
40453;SDS011;26160;51.858;4.398;2022-09-27T02:04:10;8.77;;;0.70;;
40453;SDS011;26160;51.858;4.398;2022-09-27T02:06:40;7.60;;;1.80;;
40453;SDS011;26160;51.858;4.398;2022-09-27T02:09:17;6.00;;;1.05;;
40453;SDS011;26160;51.858;4.398;2022-09-27T02:11:49;4.43;;;0.90;;
40453;SDS011;26160;51.858;4.398;2022-09-27T02:14:21;8.60;;;1.27;;
40453;SDS011;26160;51.858;4.398;2022-09-27T02:16:59;5.70;;;0.93;;
40453;SDS011;26160;51.858;4.398;2022-09-27T02:27:38;13.73;;;1.83;;
40453;SDS011;26160;51.858;4.398;2022-09-27T02:32:46;10.27;;;1.40;;
40453;SDS011;26160;51.858;4.398;2022-09-27T02:35:14;12.77;;;1.43;;
40453;SDS011;26160;51.858;4.398;2022-09-27T02:37:56;11.77;;;1.60;;
40453;SDS011;26160;51.858;4.398;2022-09-27T02:40:23;8.90;;;1.00;;
40453;SDS011;26160;51.858;4.398;2022-09-27T02:42:51;10.10;;;1.57;;
40453;SDS011;26160;51.858;4.398;2022-09-27T02:45:17;7.67;;;1.03;;
40453;SDS011;26160;51.858;4.398;2022-09-27T02:50:30;9.47;;;1.30;;
40453;SDS011;26160;51.858;4.398;2022-09-27T02:53:14;7.67;;;1.10;;
40453;SDS011;26160;51.858;4.398;2022-09-27T03:01:29;14.60;;;2.83;;
40453;SDS011;26160;51.858;4.398;2022-09-27T03:04:14;8.17;;;1.40;;
40453;SDS011;26160;51.858;4.398;2022-09-27T03:06:47;6.17;;;1.40;;
40453;SDS011;26160;51.858;4.398;2022-09-27T03:09:22;10.33;;;1.50;;
40453;SDS011;26160;51.858;4.398;2022-09-27T03:11:49;9.03;;;1.70;;
40453;SDS011;26160;51.858;4.398;2022-09-27T03:14:17;7.07;;;1.37;;
40453;SDS011;26160;51.858;4.398;2022-09-27T03:16:43;10.93;;;1.33;;
40453;SDS011;26160;51.858;4.398;2022-09-27T03:19:09;12.47;;;1.27;;
40453;SDS011;26160;51.858;4.398;2022-09-27T03:21:35;8.13;;;1.03;;
40453;SDS011;26160;51.858;4.398;2022-09-27T03:24:02;6.57;;;0.87;;
40453;SDS011;26160;51.858;4.398;2022-09-27T03:26:28;8.43;;;1.10;;
40453;SDS011;26160;51.858;4.398;2022-09-27T03:28:54;9.93;;;1.40;;
40453;SDS011;26160;51.858;4.398;2022-09-27T03:31:20;5.07;;;1.30;;
40453;SDS011;26160;51.858;4.398;2022-09-27T03:33:46;12.07;;;1.30;;
40453;SDS011;26160;51.858;4.398;2022-09-27T03:36:12;7.20;;;0.97;;
40453;SDS011;26160;51.858;4.398;2022-09-27T03:38:41;5.00;;;1.10;;
40453;SDS011;26160;51.858;4.398;2022-09-27T03:41:07;4.93;;;1.43;;
40453;SDS011;26160;51.858;4.398;2022-09-27T03:43:33;9.37;;;1.93;;
40453;SDS011;26160;51.858;4.398;2022-09-27T03:46:00;9.77;;;1.67;;
40453;SDS011;26160;51.858;4.398;2022-09-27T03:48:26;11.63;;;1.50;;
40453;SDS011;26160;51.858;4.398;2022-09-27T03:50:52;11.73;;;1.03;;
40453;SDS011;26160;51.858;4.398;2022-09-27T03:53:18;11.90;;;1.70;;
40453;SDS011;26160;51.858;4.398;2022-09-27T03:55:45;7.40;;;0.90;;
40453;SDS011;26160;51.858;4.398;2022-09-27T03:58:12;10.27;;;0.90;;
40453;SDS011;26160;51.858;4.398;2022-09-27T04:00:38;3.30;;;0.87;;
40453;SDS011;26160;51.858;4.398;2022-09-27T04:03:05;8.93;;;1.33;;
40453;SDS011;26160;51.858;4.398;2022-09-27T04:05:32;4.57;;;0.97;;
40453;SDS011;26160;51.858;4.398;2022-09-27T04:07:58;5.73;;;0.87;;
40453;SDS011;26160;51.858;4.398;2022-09-27T04:10:24;6.90;;;0.70;;
40453;SDS011;26160;51.858;4.398;2022-09-27T04:12:50;11.33;;;1.37;;
40453;SDS011;26160;51.858;4.398;2022-09-27T04:15:16;8.47;;;1.20;;
40453;SDS011;26160;51.858;4.398;2022-09-27T04:17:42;6.13;;;0.97;;
40453;SDS011;26160;51.858;4.398;2022-09-27T04:20:09;5.53;;;1.37;;
40453;SDS011;26160;51.858;4.398;2022-09-27T04:22:39;5.47;;;0.80;;
40453;SDS011;26160;51.858;4.398;2022-09-27T04:25:07;4.53;;;0.97;;
40453;SDS011;26160;51.858;4.398;2022-09-27T04:27:34;9.33;;;2.63;;
40453;SDS011;26160;51.858;4.398;2022-09-27T04:30:00;8.50;;;3.00;;
40453;SDS011;26160;51.858;4.398;2022-09-27T04:32:26;7.57;;;2.63;;
40453;SDS011;26160;51.858;4.398;2022-09-27T04:34:52;9.97;;;2.53;;
40453;SDS011;26160;51.858;4.398;2022-09-27T04:37:37;9.53;;;2.70;;
40453;SDS011;26160;51.858;4.398;2022-09-27T04:40:03;8.63;;;1.93;;
40453;SDS011;26160;51.858;4.398;2022-09-27T04:42:30;7.27;;;2.40;;
40453;SDS011;26160;51.858;4.398;2022-09-27T04:44:58;7.63;;;1.77;;
40453;SDS011;26160;51.858;4.398;2022-09-27T04:47:24;9.00;;;2.17;;
40453;SDS011;26160;51.858;4.398;2022-09-27T04:49:50;10.10;;;2.63;;
40453;SDS011;26160;51.858;4.398;2022-09-27T04:52:16;7.60;;;2.83;;
40453;SDS011;26160;51.858;4.398;2022-09-27T04:54:42;9.40;;;1.80;;
40453;SDS011;26160;51.858;4.398;2022-09-27T04:57:09;9.87;;;2.10;;
40453;SDS011;26160;51.858;4.398;2022-09-27T04:59:36;5.63;;;1.60;;
40453;SDS011;26160;51.858;4.398;2022-09-27T05:02:02;7.87;;;1.33;;
40453;SDS011;26160;51.858;4.398;2022-09-27T05:04:30;7.67;;;1.30;;
40453;SDS011;26160;51.858;4.398;2022-09-27T05:06:56;3.17;;;0.90;;
40453;SDS011;26160;51.858;4.398;2022-09-27T05:09:22;5.67;;;1.00;;
40453;SDS011;26160;51.858;4.398;2022-09-27T05:11:48;3.63;;;0.90;;
40453;SDS011;26160;51.858;4.398;2022-09-27T05:14:14;2.90;;;1.10;;
40453;SDS011;26160;51.858;4.398;2022-09-27T05:16:40;4.13;;;1.13;;
40453;SDS011;26160;51.858;4.398;2022-09-27T05:19:06;6.07;;;1.30;;
40453;SDS011;26160;51.858;4.398;2022-09-27T05:21:33;5.90;;;1.30;;
40453;SDS011;26160;51.858;4.398;2022-09-27T05:23:59;3.40;;;1.20;;
40453;SDS011;26160;51.858;4.398;2022-09-27T05:26:25;5.47;;;1.50;;
40453;SDS011;26160;51.858;4.398;2022-09-27T05:28:51;4.47;;;1.27;;
40453;SDS011;26160;51.858;4.398;2022-09-27T05:31:17;9.37;;;2.40;;
40453;SDS011;26160;51.858;4.398;2022-09-27T05:33:43;3.20;;;1.17;;
40453;SDS011;26160;51.858;4.398;2022-09-27T05:36:09;5.77;;;2.60;;
40453;SDS011;26160;51.858;4.398;2022-09-27T05:38:36;11.13;;;5.33;;
40453;SDS011;26160;51.858;4.398;2022-09-27T05:41:02;8.30;;;4.27;;
40453;SDS011;26160;51.858;4.398;2022-09-27T05:43:29;9.73;;;5.20;;
40453;SDS011;26160;51.858;4.398;2022-09-27T05:45:56;12.83;;;3.57;;
40453;SDS011;26160;51.858;4.398;2022-09-27T05:48:26;10.07;;;2.83;;
40453;SDS011;26160;51.858;4.398;2022-09-27T05:50:59;6.63;;;2.43;;
40453;SDS011;26160;51.858;4.398;2022-09-27T05:53:25;9.33;;;1.87;;
40453;SDS011;26160;51.858;4.398;2022-09-27T05:55:51;9.53;;;1.70;;
40453;SDS011;26160;51.858;4.398;2022-09-27T05:58:17;7.90;;;1.63;;
40453;SDS011;26160;51.858;4.398;2022-09-27T06:00:43;7.57;;;1.60;;
40453;SDS011;26160;51.858;4.398;2022-09-27T06:03:10;3.50;;;0.97;;
40453;SDS011;26160;51.858;4.398;2022-09-27T06:05:38;3.03;;;1.20;;
40453;SDS011;26160;51.858;4.398;2022-09-27T06:08:06;3.77;;;1.03;;
40453;SDS011;26160;51.858;4.398;2022-09-27T06:10:35;8.40;;;1.10;;
40453;SDS011;26160;51.858;4.398;2022-09-27T06:13:02;13.53;;;2.30;;
40453;SDS011;26160;51.858;4.398;2022-09-27T06:15:34;6.60;;;1.20;;
40453;SDS011;26160;51.858;4.398;2022-09-27T06:18:03;7.07;;;1.33;;
40453;SDS011;26160;51.858;4.398;2022-09-27T06:20:30;6.17;;;1.10;;
40453;SDS011;26160;51.858;4.398;2022-09-27T06:23:31;8.03;;;1.20;;
40453;SDS011;26160;51.858;4.398;2022-09-27T06:25:50;8.50;;;1.07;;
40453;SDS011;26160;51.858;4.398;2022-09-27T06:28:17;9.43;;;1.20;;
40453;SDS011;26160;51.858;4.398;2022-09-27T06:30:44;6.27;;;1.00;;
40453;SDS011;26160;51.858;4.398;2022-09-27T06:33:13;5.50;;;1.10;;
40453;SDS011;26160;51.858;4.398;2022-09-27T06:35:41;7.77;;;1.10;;
40453;SDS011;26160;51.858;4.398;2022-09-27T06:38:10;7.93;;;1.40;;
40453;SDS011;26160;51.858;4.398;2022-09-27T06:40:41;4.30;;;0.87;;
40453;SDS011;26160;51.858;4.398;2022-09-27T06:43:15;4.57;;;0.90;;
40453;SDS011;26160;51.858;4.398;2022-09-27T06:45:42;6.93;;;1.13;;
40453;SDS011;26160;51.858;4.398;2022-09-27T06:48:09;7.00;;;1.23;;
40453;SDS011;26160;51.858;4.398;2022-09-27T06:50:38;4.97;;;1.13;;
40453;SDS011;26160;51.858;4.398;2022-09-27T06:53:06;7.77;;;1.40;;
40453;SDS011;26160;51.858;4.398;2022-09-27T06:55:36;6.43;;;1.10;;
40453;SDS011;26160;51.858;4.398;2022-09-27T06:58:03;7.67;;;1.37;;
40453;SDS011;26160;51.858;4.398;2022-09-27T07:00:51;6.63;;;1.33;;
40453;SDS011;26160;51.858;4.398;2022-09-27T07:03:18;7.67;;;1.17;;
40453;SDS011;26160;51.858;4.398;2022-09-27T07:05:54;9.93;;;1.50;;
40453;SDS011;26160;51.858;4.398;2022-09-27T07:08:24;5.30;;;1.07;;
40453;SDS011;26160;51.858;4.398;2022-09-27T07:10:53;8.63;;;1.10;;
40453;SDS011;26160;51.858;4.398;2022-09-27T07:13:20;9.80;;;2.57;;
40453;SDS011;26160;51.858;4.398;2022-09-27T07:15:47;9.20;;;1.50;;
40453;SDS011;26160;51.858;4.398;2022-09-27T07:18:13;8.10;;;0.93;;
40453;SDS011;26160;51.858;4.398;2022-09-27T07:20:39;5.20;;;1.00;;
40453;SDS011;26160;51.858;4.398;2022-09-27T07:23:06;6.33;;;1.03;;
40453;SDS011;26160;51.858;4.398;2022-09-27T07:25:33;4.97;;;1.00;;
40453;SDS011;26160;51.858;4.398;2022-09-27T07:28:04;7.43;;;1.83;;
40453;SDS011;26160;51.858;4.398;2022-09-27T07:30:32;5.47;;;0.90;;
40453;SDS011;26160;51.858;4.398;2022-09-27T07:33:02;7.33;;;1.23;;
40453;SDS011;26160;51.858;4.398;2022-09-27T07:35:29;7.87;;;1.20;;
40453;SDS011;26160;51.858;4.398;2022-09-27T07:37:56;4.60;;;0.90;;
40453;SDS011;26160;51.858;4.398;2022-09-27T07:40:23;9.93;;;1.50;;
40453;SDS011;26160;51.858;4.398;2022-09-27T07:42:56;4.90;;;1.50;;
40453;SDS011;26160;51.858;4.398;2022-09-27T07:45:23;8.15;;;2.42;;
40453;SDS011;26160;51.858;4.398;2022-09-27T07:47:50;9.40;;;2.03;;
40453;SDS011;26160;51.858;4.398;2022-09-27T07:50:16;8.27;;;1.40;;
40453;SDS011;26160;51.858;4.398;2022-09-27T07:52:44;4.00;;;1.00;;
40453;SDS011;26160;51.858;4.398;2022-09-27T07:55:12;4.00;;;0.90;;
40453;SDS011;26160;51.858;4.398;2022-09-27T07:57:39;2.63;;;0.83;;
40453;SDS011;26160;51.858;4.398;2022-09-27T08:00:07;9.03;;;1.90;;
40453;SDS011;26160;51.858;4.398;2022-09-27T08:02:35;6.80;;;1.50;;
40453;SDS011;26160;51.858;4.398;2022-09-27T08:05:02;6.67;;;1.13;;
40453;SDS011;26160;51.858;4.398;2022-09-27T08:07:29;7.13;;;1.10;;
40453;SDS011;26160;51.858;4.398;2022-09-27T08:09:55;9.53;;;1.77;;
40453;SDS011;26160;51.858;4.398;2022-09-27T08:12:22;9.67;;;4.30;;
40453;SDS011;26160;51.858;4.398;2022-09-27T08:14:48;5.33;;;2.07;;
40453;SDS011;26160;51.858;4.398;2022-09-27T08:17:15;8.97;;;1.63;;
40453;SDS011;26160;51.858;4.398;2022-09-27T08:19:44;5.60;;;0.80;;
40453;SDS011;26160;51.858;4.398;2022-09-27T08:22:12;8.20;;;1.10;;
40453;SDS011;26160;51.858;4.398;2022-09-27T08:24:41;4.07;;;0.90;;
40453;SDS011;26160;51.858;4.398;2022-09-27T08:27:08;5.83;;;1.00;;
40453;SDS011;26160;51.858;4.398;2022-09-27T08:29:34;7.17;;;1.63;;
40453;SDS011;26160;51.858;4.398;2022-09-27T08:32:00;7.63;;;1.73;;
40453;SDS011;26160;51.858;4.398;2022-09-27T08:34:26;7.47;;;1.40;;
40453;SDS011;26160;51.858;4.398;2022-09-27T08:36:54;7.30;;;1.10;;
40453;SDS011;26160;51.858;4.398;2022-09-27T08:39:23;3.47;;;0.93;;
40453;SDS011;26160;51.858;4.398;2022-09-27T08:41:51;2.63;;;1.20;;
40453;SDS011;26160;51.858;4.398;2022-09-27T08:44:44;6.68;;;2.10;;
40453;SDS011;26160;51.858;4.398;2022-09-27T08:47:35;5.47;;;1.57;;
40453;SDS011;26160;51.858;4.398;2022-09-27T08:55:40;5.10;;;1.30;;
40453;SDS011;26160;51.858;4.398;2022-09-27T09:01:09;6.57;;;1.23;;
40453;SDS011;26160;51.858;4.398;2022-09-27T09:03:48;9.85;;;1.98;;
40453;SDS011;26160;51.858;4.398;2022-09-27T09:06:38;2.77;;;1.03;;
40453;SDS011;26160;51.858;4.398;2022-09-27T09:15:21;5.60;;;1.03;;
40453;SDS011;26160;51.858;4.398;2022-09-27T09:23:48;4.10;;;1.00;;
40453;SDS011;26160;51.858;4.398;2022-09-27T09:26:31;7.63;;;1.10;;
40453;SDS011;26160;51.858;4.398;2022-09-27T09:31:41;6.47;;;1.40;;
40453;SDS011;26160;51.858;4.398;2022-09-27T09:34:21;5.30;;;1.50;;
40453;SDS011;26160;51.858;4.398;2022-09-27T09:36:52;8.13;;;1.90;;
40453;SDS011;26160;51.858;4.398;2022-09-27T09:39:25;5.40;;;1.55;;
40453;SDS011;26160;51.858;4.398;2022-09-27T09:42:09;6.03;;;1.00;;
40453;SDS011;26160;51.858;4.398;2022-09-27T09:50:04;2.60;;;0.80;;
40453;SDS011;26160;51.858;4.398;2022-09-27T09:56:08;3.70;;;0.90;;
40453;SDS011;26160;51.858;4.398;2022-09-27T10:01:19;2.17;;;1.03;;
40453;SDS011;26160;51.858;4.398;2022-09-27T10:03:47;4.35;;;1.00;;
40453;SDS011;26160;51.858;4.398;2022-09-27T10:06:14;5.33;;;1.23;;
40453;SDS011;26160;51.858;4.398;2022-09-27T10:08:42;6.50;;;1.67;;
40453;SDS011;26160;51.858;4.398;2022-09-27T10:11:15;4.70;;;1.00;;
40453;SDS011;26160;51.858;4.398;2022-09-27T10:13:45;7.47;;;1.00;;
40453;SDS011;26160;51.858;4.398;2022-09-27T10:16:13;3.60;;;0.80;;
40453;SDS011;26160;51.858;4.398;2022-09-27T10:18:42;2.97;;;0.90;;
40453;SDS011;26160;51.858;4.398;2022-09-27T10:21:14;5.80;;;1.20;;
40453;SDS011;26160;51.858;4.398;2022-09-27T10:26:40;9.77;;;2.78;;
40453;SDS011;26160;51.858;4.398;2022-09-27T10:31:48;5.03;;;1.97;;
40453;SDS011;26160;51.858;4.398;2022-09-27T10:34:32;5.33;;;2.07;;
40453;SDS011;26160;51.858;4.398;2022-09-27T10:37:22;4.87;;;1.40;;
40453;SDS011;26160;51.858;4.398;2022-09-27T10:39:48;3.00;;;1.10;;
40453;SDS011;26160;51.858;4.398;2022-09-27T10:42:20;6.10;;;1.30;;
40453;SDS011;26160;51.858;4.398;2022-09-27T10:44:52;7.75;;;1.33;;
40453;SDS011;26160;51.858;4.398;2022-09-27T10:47:19;2.30;;;0.90;;
40453;SDS011;26160;51.858;4.398;2022-09-27T10:49:48;8.87;;;1.73;;
40453;SDS011;26160;51.858;4.398;2022-09-27T10:52:19;5.33;;;1.20;;
40453;SDS011;26160;51.858;4.398;2022-09-27T10:57:28;4.00;;;1.15;;
40453;SDS011;26160;51.858;4.398;2022-09-27T10:59:56;6.13;;;1.65;;
40453;SDS011;26160;51.858;4.398;2022-09-27T11:02:33;2.33;;;0.90;;
40453;SDS011;26160;51.858;4.398;2022-09-27T11:05:14;5.03;;;1.92;;
40453;SDS011;26160;51.858;4.398;2022-09-27T11:07:57;5.10;;;1.25;;
40453;SDS011;26160;51.858;4.398;2022-09-27T11:10:34;6.38;;;0.88;;
40453;SDS011;26160;51.858;4.398;2022-09-27T11:13:09;3.10;;;0.70;;
40453;SDS011;26160;51.858;4.398;2022-09-27T11:28:13;2.85;;;0.98;;
40453;SDS011;26160;51.858;4.398;2022-09-27T11:41:55;4.30;;;1.50;;
40453;SDS011;26160;51.858;4.398;2022-09-27T11:44:40;6.72;;;1.00;;
40453;SDS011;26160;51.858;4.398;2022-09-27T11:47:15;3.80;;;1.05;;
40453;SDS011;26160;51.858;4.398;2022-09-27T11:55:24;5.15;;;0.88;;
40453;SDS011;26160;51.858;4.398;2022-09-27T12:06:44;6.88;;;1.08;;
40453;SDS011;26160;51.858;4.398;2022-09-27T12:09:19;4.28;;;0.90;;
40453;SDS011;26160;51.858;4.398;2022-09-27T12:11:52;4.93;;;1.02;;
40453;SDS011;26160;51.858;4.398;2022-09-27T12:14:39;4.97;;;1.00;;
40453;SDS011;26160;51.858;4.398;2022-09-27T12:17:19;4.68;;;0.88;;
40453;SDS011;26160;51.858;4.398;2022-09-27T12:19:53;3.97;;;0.98;;
40453;SDS011;26160;51.858;4.398;2022-09-27T12:22:24;6.03;;;0.73;;
40453;SDS011;26160;51.858;4.398;2022-09-27T12:24:55;5.25;;;0.70;;
40453;SDS011;26160;51.858;4.398;2022-09-27T12:27:26;3.38;;;0.63;;
40453;SDS011;26160;51.858;4.398;2022-09-27T12:30:02;7.80;;;1.00;;
40453;SDS011;26160;51.858;4.398;2022-09-27T12:37:55;5.22;;;1.73;;
40453;SDS011;26160;51.858;4.398;2022-09-27T12:40:47;4.30;;;1.00;;
40453;SDS011;26160;51.858;4.398;2022-09-27T12:43:20;7.43;;;0.77;;
40453;SDS011;26160;51.858;4.398;2022-09-27T12:48:43;3.15;;;0.68;;
40453;SDS011;26160;51.858;4.398;2022-09-27T12:51:35;11.05;;;1.70;;
40453;SDS011;26160;51.858;4.398;2022-09-27T12:56:48;6.40;;;1.20;;
40453;SDS011;26160;51.858;4.398;2022-09-27T13:05:03;3.83;;;0.88;;
40453;SDS011;26160;51.858;4.398;2022-09-27T13:13:10;11.52;;;1.48;;
40453;SDS011;26160;51.858;4.398;2022-09-27T13:15:38;9.13;;;1.45;;
40453;SDS011;26160;51.858;4.398;2022-09-27T13:21:00;7.93;;;1.08;;
40453;SDS011;26160;51.858;4.398;2022-09-27T13:31:14;14.02;;;1.50;;
40453;SDS011;26160;51.858;4.398;2022-09-27T13:38:52;6.63;;;1.00;;
40453;SDS011;26160;51.858;4.398;2022-09-27T13:46:45;7.53;;;1.27;;
40453;SDS011;26160;51.858;4.398;2022-09-27T13:49:19;8.13;;;1.80;;
40453;SDS011;26160;51.858;4.398;2022-09-27T13:51:50;4.97;;;1.42;;
40453;SDS011;26160;51.858;4.398;2022-09-27T13:57:00;5.47;;;1.35;;
40453;SDS011;26160;51.858;4.398;2022-09-27T13:59:35;10.18;;;1.90;;
40453;SDS011;26160;51.858;4.398;2022-09-27T14:04:49;5.22;;;1.40;;
40453;SDS011;26160;51.858;4.398;2022-09-27T14:07:17;8.60;;;1.98;;
40453;SDS011;26160;51.858;4.398;2022-09-27T14:09:47;4.20;;;1.15;;
40453;SDS011;26160;51.858;4.398;2022-09-27T14:12:19;12.32;;;1.58;;
40453;SDS011;26160;51.858;4.398;2022-09-27T14:14:49;8.38;;;1.60;;
40453;SDS011;26160;51.858;4.398;2022-09-27T14:17:17;7.93;;;1.35;;
40453;SDS011;26160;51.858;4.398;2022-09-27T14:19:43;9.50;;;1.90;;
40453;SDS011;26160;51.858;4.398;2022-09-27T14:22:13;10.02;;;1.80;;
40453;SDS011;26160;51.858;4.398;2022-09-27T14:27:12;9.20;;;1.67;;
40453;SDS011;26160;51.858;4.398;2022-09-27T14:32:22;9.60;;;2.13;;
40453;SDS011;26160;51.858;4.398;2022-09-27T14:35:07;5.07;;;1.55;;
40453;SDS011;26160;51.858;4.398;2022-09-27T14:37:56;5.05;;;1.05;;
40453;SDS011;26160;51.858;4.398;2022-09-27T14:40:24;2.42;;;0.70;;
40453;SDS011;26160;51.858;4.398;2022-09-27T14:42:56;2.80;;;0.73;;
40453;SDS011;26160;51.858;4.398;2022-09-27T14:45:36;4.45;;;0.80;;
40453;SDS011;26160;51.858;4.398;2022-09-27T14:48:18;5.03;;;0.98;;
40453;SDS011;26160;51.858;4.398;2022-09-27T14:50:58;4.78;;;1.38;;
40453;SDS011;26160;51.858;4.398;2022-09-27T14:53:32;5.95;;;1.02;;
40453;SDS011;26160;51.858;4.398;2022-09-27T14:56:00;7.38;;;1.52;;
40453;SDS011;26160;51.858;4.398;2022-09-27T14:58:28;6.03;;;1.38;;
40453;SDS011;26160;51.858;4.398;2022-09-27T15:00:54;4.47;;;0.95;;
40453;SDS011;26160;51.858;4.398;2022-09-27T15:03:28;7.05;;;1.33;;
40453;SDS011;26160;51.858;4.398;2022-09-27T15:05:56;8.07;;;1.30;;
40453;SDS011;26160;51.858;4.398;2022-09-27T15:08:26;6.32;;;1.00;;
40453;SDS011;26160;51.858;4.398;2022-09-27T15:11:02;4.15;;;0.93;;
40453;SDS011;26160;51.858;4.398;2022-09-27T15:13:35;6.37;;;1.47;;
40453;SDS011;26160;51.858;4.398;2022-09-27T15:16:07;3.95;;;1.30;;
40453;SDS011;26160;51.858;4.398;2022-09-27T15:18:41;7.03;;;1.10;;
40453;SDS011;26160;51.858;4.398;2022-09-27T15:21:10;4.60;;;1.35;;
40453;SDS011;26160;51.858;4.398;2022-09-27T15:23:39;4.80;;;1.52;;
40453;SDS011;26160;51.858;4.398;2022-09-27T15:26:14;5.28;;;1.60;;
40453;SDS011;26160;51.858;4.398;2022-09-27T15:28:44;6.00;;;1.10;;
40453;SDS011;26160;51.858;4.398;2022-09-27T15:31:13;3.57;;;1.10;;
40453;SDS011;26160;51.858;4.398;2022-09-27T15:33:39;5.53;;;1.52;;
40453;SDS011;26160;51.858;4.398;2022-09-27T15:36:07;4.82;;;1.40;;
40453;SDS011;26160;51.858;4.398;2022-09-27T15:38:37;5.68;;;1.35;;
40453;SDS011;26160;51.858;4.398;2022-09-27T15:41:13;2.65;;;1.20;;
40453;SDS011;26160;51.858;4.398;2022-09-27T15:43:46;3.00;;;1.00;;
40453;SDS011;26160;51.858;4.398;2022-09-27T15:46:30;4.05;;;1.20;;
40453;SDS011;26160;51.858;4.398;2022-09-27T15:51:53;4.72;;;1.15;;
40453;SDS011;26160;51.858;4.398;2022-09-27T15:54:21;6.47;;;0.88;;
40453;SDS011;26160;51.858;4.398;2022-09-27T15:56:50;2.97;;;0.80;;
40453;SDS011;26160;51.858;4.398;2022-09-27T16:01:50;8.15;;;1.33;;
40453;SDS011;26160;51.858;4.398;2022-09-27T16:04:19;7.18;;;1.15;;
40453;SDS011;26160;51.858;4.398;2022-09-27T16:06:45;6.95;;;1.17;;
40453;SDS011;26160;51.858;4.398;2022-09-27T16:09:29;7.05;;;1.30;;
40453;SDS011;26160;51.858;4.398;2022-09-27T16:11:55;7.77;;;1.60;;
40453;SDS011;26160;51.858;4.398;2022-09-27T16:14:22;9.65;;;1.65;;
40453;SDS011;26160;51.858;4.398;2022-09-27T16:16:49;6.57;;;1.90;;
40453;SDS011;26160;51.858;4.398;2022-09-27T16:19:17;5.60;;;1.30;;
40453;SDS011;26160;51.858;4.398;2022-09-27T16:21:43;7.00;;;1.80;;
40453;SDS011;26160;51.858;4.398;2022-09-27T16:24:12;5.10;;;1.73;;
40453;SDS011;26160;51.858;4.398;2022-09-27T16:26:38;9.43;;;1.95;;
40453;SDS011;26160;51.858;4.398;2022-09-27T16:29:08;4.40;;;1.80;;
40453;SDS011;26160;51.858;4.398;2022-09-27T16:31:38;8.10;;;1.88;;
40453;SDS011;26160;51.858;4.398;2022-09-27T16:34:07;11.30;;;2.75;;
40453;SDS011;26160;51.858;4.398;2022-09-27T16:36:33;6.38;;;2.03;;
40453;SDS011;26160;51.858;4.398;2022-09-27T16:39:00;7.65;;;1.95;;
40453;SDS011;26160;51.858;4.398;2022-09-27T16:41:29;10.63;;;2.10;;
40453;SDS011;26160;51.858;4.398;2022-09-27T16:43:58;7.40;;;2.20;;
40453;SDS011;26160;51.858;4.398;2022-09-27T16:46:24;6.53;;;1.93;;
40453;SDS011;26160;51.858;4.398;2022-09-27T16:48:50;6.03;;;1.90;;
40453;SDS011;26160;51.858;4.398;2022-09-27T16:51:17;6.50;;;1.80;;
40453;SDS011;26160;51.858;4.398;2022-09-27T16:54:04;4.55;;;1.45;;
40453;SDS011;26160;51.858;4.398;2022-09-27T16:56:34;6.40;;;2.13;;
40453;SDS011;26160;51.858;4.398;2022-09-27T16:59:01;6.43;;;2.20;;
40453;SDS011;26160;51.858;4.398;2022-09-27T17:01:29;4.60;;;1.90;;
40453;SDS011;26160;51.858;4.398;2022-09-27T17:03:55;4.70;;;1.70;;
40453;SDS011;26160;51.858;4.398;2022-09-27T17:06:22;4.20;;;1.73;;
40453;SDS011;26160;51.858;4.398;2022-09-27T17:08:53;4.50;;;1.97;;
40453;SDS011;26160;51.858;4.398;2022-09-27T17:11:19;4.67;;;2.20;;
40453;SDS011;26160;51.858;4.398;2022-09-27T17:13:45;4.67;;;2.20;;
40453;SDS011;26160;51.858;4.398;2022-09-27T17:16:13;7.73;;;2.30;;
40453;SDS011;26160;51.858;4.398;2022-09-27T17:18:41;5.53;;;2.60;;
40453;SDS011;26160;51.858;4.398;2022-09-27T17:21:07;6.32;;;2.97;;
40453;SDS011;26160;51.858;4.398;2022-09-27T17:23:36;6.57;;;3.97;;
40453;SDS011;26160;51.858;4.398;2022-09-27T17:26:13;7.45;;;2.78;;
40453;SDS011;26160;51.858;4.398;2022-09-27T17:28:42;5.87;;;2.30;;
40453;SDS011;26160;51.858;4.398;2022-09-27T17:31:08;7.83;;;2.37;;
40453;SDS011;26160;51.858;4.398;2022-09-27T17:33:38;4.97;;;2.50;;
40453;SDS011;26160;51.858;4.398;2022-09-27T17:36:08;5.73;;;2.37;;
40453;SDS011;26160;51.858;4.398;2022-09-27T17:38:37;7.13;;;3.00;;
40453;SDS011;26160;51.858;4.398;2022-09-27T17:41:05;13.03;;;3.47;;
40453;SDS011;26160;51.858;4.398;2022-09-27T17:43:33;9.43;;;2.60;;
40453;SDS011;26160;51.858;4.398;2022-09-27T17:46:03;8.70;;;2.50;;
40453;SDS011;26160;51.858;4.398;2022-09-27T17:48:30;12.20;;;3.10;;
40453;SDS011;26160;51.858;4.398;2022-09-27T17:51:15;5.47;;;2.30;;
40453;SDS011;26160;51.858;4.398;2022-09-27T17:53:42;7.43;;;1.73;;
40453;SDS011;26160;51.858;4.398;2022-09-27T17:56:09;16.17;;;2.63;;
40453;SDS011;26160;51.858;4.398;2022-09-27T17:58:37;7.10;;;2.27;;
40453;SDS011;26160;51.858;4.398;2022-09-27T18:01:04;11.80;;;3.03;;
40453;SDS011;26160;51.858;4.398;2022-09-27T18:03:32;7.80;;;3.00;;
40453;SDS011;26160;51.858;4.398;2022-09-27T18:06:03;11.13;;;2.80;;
40453;SDS011;26160;51.858;4.398;2022-09-27T18:08:33;11.33;;;3.27;;
40453;SDS011;26160;51.858;4.398;2022-09-27T18:11:05;11.60;;;3.90;;
40453;SDS011;26160;51.858;4.398;2022-09-27T18:13:37;12.93;;;2.83;;
40453;SDS011;26160;51.858;4.398;2022-09-27T18:16:13;7.07;;;2.40;;